Terminal Aerodrome Forecast
Issued by NWS

Home | Current Version | Previous Version | Text Only | Print | Product List | Glossary On
Versions: 1 2 3 4 5 6 7 8 9 10 11 12 13 14 15 16 17 18 19 20 21
000
FTUS44 KCRP 021700
TAFALI
TAF
KALI 021731Z 0218/0318 17015G22KT P6SM SCT025 BKN035
     FM030000 16009KT P6SM SCT015
     FM030600 VRB04KT P6SM SCT015
     FM031100 02012G18KT P6SM VCTS SCT015 BKN025CB
      TEMPO 0311/0312 02015G25KT 3SM TSRA BKN015CB
     FM031700 02010KT P6SM SCT020 BKN060=

USA.gov is the U.S. government's official web portal to all federal, state and local government web resources and services.